Ceuta, Spain
Current Conditions -  °F | °C
As of 11:50 PM on Saturday 25 Oct 2014 (Local Time) from LXGB Reporting Station
Scattered Clouds Scattered Clouds  
Wind Chill: 68°   Ceiling: Unl
Heat Index: 68°   Visibility: 6mi
Dew Point: 64°   Wind: 14mph
Humidity: 88%   Direction: 80°E
Pressure: 30.12"   Gusts: NA
Location:  35.89°N, 5.32°W
Report Text: LXGB 252150Z AUTO 08012KT 9999 // SCT021/// 20/18 Q1020
Loading
Personal Weather Stations






























Interactive Weather Map New forecast layout! Learn more

10-Day Weather Forecast

Advertisements
Track Severe Weather on mobile